createdAt,value
2023-04-14T03:59:05.077Z,1004.05
2023-04-14T04:00:05.030Z,1004.08
2023-04-14T04:01:05.052Z,1004.03
2023-04-14T04:02:05.128Z,1004.03
2023-04-14T04:03:05.241Z,1004.02
2023-04-14T04:04:05.118Z,1004.01
2023-04-14T04:05:05.180Z,1003.99
2023-04-14T04:06:04.986Z,1003.99
2023-04-14T04:07:05.021Z,1003.99
2023-04-14T04:08:04.995Z,1004.00
2023-04-14T04:09:04.964Z,1004.01
2023-04-14T04:10:04.978Z,1004.03
2023-04-14T04:11:05.303Z,1004.06
2023-04-14T04:12:04.953Z,1004.01
2023-04-14T04:13:04.938Z,1004.04
2023-04-14T04:14:04.943Z,1004.03
2023-04-14T04:15:04.966Z,1004.05
2023-04-14T04:16:04.996Z,1004.03
2023-04-14T04:17:04.938Z,1004.04
2023-04-14T04:18:04.911Z,1004.06
2023-04-14T04:19:04.913Z,1004.03
2023-04-14T04:20:06.814Z,1004.04
2023-04-14T04:21:04.901Z,1004.05
2023-04-14T04:22:04.931Z,1004.07
2023-04-14T04:23:04.904Z,1004.08
2023-04-14T04:24:04.896Z,1004.08
2023-04-14T04:25:04.898Z,1004.08
2023-04-14T04:26:04.890Z,1004.10
2023-04-14T04:27:07.877Z,1004.09
2023-04-14T04:28:04.871Z,1004.11
2023-04-14T04:29:04.861Z,1004.08
2023-04-14T04:30:04.897Z,1004.10
2023-04-14T04:31:04.890Z,1004.14
2023-04-14T04:32:04.887Z,1004.11
2023-04-14T04:33:04.859Z,1004.07
2023-04-14T04:34:04.864Z,1004.13
2023-04-14T04:35:04.850Z,1004.10
2023-04-14T04:36:04.857Z,1004.14
2023-04-14T04:37:04.831Z,1004.12
2023-04-14T04:38:04.821Z,1004.11
2023-04-14T04:39:04.816Z,1004.09
2023-04-14T04:40:04.822Z,1004.11
2023-04-14T04:41:04.837Z,1004.10
2023-04-14T04:42:04.812Z,1004.11
2023-04-14T04:43:04.792Z,1004.11
2023-04-14T04:44:04.810Z,1004.09
2023-04-14T04:45:04.821Z,1004.11
2023-04-14T04:46:04.846Z,1004.10
2023-04-14T04:47:04.808Z,1004.08
2023-04-14T04:48:04.844Z,1004.09
2023-04-14T04:49:04.787Z,1004.08
2023-04-14T04:50:04.774Z,1004.11
2023-04-14T04:51:04.766Z,1004.14
2023-04-14T04:52:04.766Z,1004.12
2023-04-14T04:53:04.770Z,1004.15
2023-04-14T04:54:04.771Z,1004.12
2023-04-14T04:55:04.751Z,1004.15
2023-04-14T04:56:04.743Z,1004.11
2023-04-14T04:57:04.750Z,1004.14
2023-04-14T04:58:04.739Z,1004.14
2023-04-14T04:59:04.739Z,1004.12
2023-04-14T05:00:04.749Z,1004.16
2023-04-14T05:01:04.772Z,1004.15
2023-04-14T05:02:04.788Z,1004.14
2023-04-14T05:03:04.797Z,1004.18
2023-04-14T05:04:04.749Z,1004.19
2023-04-14T05:05:04.741Z,1004.13
2023-04-14T05:06:04.716Z,1004.15
2023-04-14T05:07:04.716Z,1004.14
2023-04-14T05:08:04.727Z,1004.11
2023-04-14T05:09:04.715Z,1004.14
2023-04-14T05:10:04.720Z,1004.14
2023-04-14T05:11:04.718Z,1004.15
2023-04-14T05:12:04.693Z,1004.14
2023-04-14T05:13:04.724Z,1004.16
2023-04-14T05:14:04.680Z,1004.14
2023-04-14T05:15:04.667Z,1004.11
2023-04-14T05:16:04.756Z,1004.15
2023-04-14T05:17:04.673Z,1004.13
2023-04-14T05:18:04.746Z,1004.14
2023-04-14T05:19:04.689Z,1004.17
2023-04-14T05:20:04.657Z,1004.17
2023-04-14T05:21:04.676Z,1004.16
2023-04-14T05:22:04.660Z,1004.18
2023-04-14T05:23:04.666Z,1004.17
2023-04-14T05:24:04.636Z,1004.17
2023-04-14T05:25:04.633Z,1004.17
2023-04-14T05:26:26.893Z,1004.16
2023-04-14T05:27:12.997Z,1004.16
2023-04-14T05:28:04.633Z,1004.15
2023-04-14T05:29:04.652Z,1004.16
2023-04-14T05:30:04.667Z,1004.18
2023-04-14T05:31:04.637Z,1004.16
2023-04-14T05:32:04.620Z,1004.16
2023-04-14T05:33:04.705Z,1004.17
2023-04-14T05:34:04.612Z,1004.16
2023-04-14T05:35:04.638Z,1004.15
2023-04-14T05:36:04.588Z,1004.19
2023-04-14T05:37:04.584Z,1004.17
2023-04-14T05:38:04.615Z,1004.16
2023-04-14T05:39:04.619Z,1004.16
2023-04-14T05:40:04.621Z,1004.15
2023-04-14T05:41:04.572Z,1004.14
2023-04-14T05:42:04.618Z,1004.10
2023-04-14T05:43:04.574Z,1004.11
2023-04-14T05:44:04.876Z,1004.15
2023-04-14T05:45:04.555Z,1004.12
2023-04-14T05:46:04.815Z,1004.09
2023-04-14T05:47:05.471Z,1004.13
2023-04-14T05:48:05.420Z,1004.07
2023-04-14T05:49:04.558Z,1004.06
2023-04-14T05:50:04.596Z,1004.13
2023-04-14T05:51:04.607Z,1004.07
2023-04-14T05:52:04.613Z,1004.06
2023-04-14T05:53:04.548Z,1004.09
2023-04-14T05:54:04.666Z,1004.09
2023-04-14T05:55:04.535Z,1004.07
2023-04-14T05:56:04.521Z,1004.11
2023-04-14T05:57:04.560Z,1004.12
2023-04-14T05:58:05.428Z,1004.12
2023-04-14T05:59:04.546Z,1004.12
2023-04-14T06:00:04.550Z,1004.12
2023-04-14T06:01:04.557Z,1004.15
2023-04-14T06:02:05.023Z,1004.15
2023-04-14T06:03:04.710Z,1004.16
2023-04-14T06:04:05.783Z,1004.17
2023-04-14T06:05:04.630Z,1004.20
2023-04-14T06:06:04.534Z,1004.24
2023-04-14T06:07:04.526Z,1004.23
2023-04-14T06:08:04.575Z,1004.24
2023-04-14T06:09:06.412Z,1004.28
2023-04-14T06:10:04.487Z,1004.27
2023-04-14T06:11:04.551Z,1004.27
2023-04-14T06:12:04.605Z,1004.29
2023-04-14T06:13:04.507Z,1004.30
2023-04-14T06:14:04.470Z,1004.28
2023-04-14T06:15:04.488Z,1004.32
2023-04-14T06:16:04.495Z,1004.32
2023-04-14T06:17:04.449Z,1004.30
2023-04-14T06:18:04.971Z,1004.31
2023-04-14T06:19:05.408Z,1004.32
2023-04-14T06:20:04.466Z,1004.35
2023-04-14T06:21:04.487Z,1004.33
2023-04-14T06:24:37.138Z,1004.28
2023-04-14T06:25:37.060Z,1004.28
2023-04-14T06:26:37.042Z,1004.25
2023-04-14T06:27:37.043Z,1004.26
2023-04-14T06:28:37.103Z,1004.24
2023-04-14T06:29:37.088Z,1004.22
2023-04-14T06:30:37.023Z,1004.22
2023-04-14T06:31:37.042Z,1004.19
2023-04-14T06:32:37.075Z,1004.17
2023-04-14T06:33:37.038Z,1004.18
2023-04-14T06:34:38.169Z,1004.18
2023-04-14T06:35:37.022Z,1004.19
2023-04-14T06:36:37.009Z,1004.17
2023-04-14T06:37:37.030Z,1004.20
2023-04-14T06:38:37.111Z,1004.24
2023-04-14T06:39:37.040Z,1004.23
2023-04-14T06:40:37.046Z,1004.24
2023-04-14T06:41:37.028Z,1004.23
2023-04-14T06:42:36.989Z,1004.26
2023-04-14T06:43:37.028Z,1004.28
2023-04-14T06:44:36.966Z,1004.29
2023-04-14T06:45:37.071Z,1004.26
2023-04-14T06:46:37.765Z,1004.28
2023-04-14T06:47:37.059Z,1004.29
2023-04-14T06:48:36.976Z,1004.31
2023-04-14T06:49:36.988Z,1004.29
2023-04-14T06:50:36.976Z,1004.28
2023-04-14T06:51:36.982Z,1004.27
2023-04-14T06:52:36.951Z,1004.28
2023-04-14T06:53:36.949Z,1004.31
2023-04-14T06:54:36.982Z,1004.29
2023-04-14T06:55:37.369Z,1004.31
2023-04-14T06:56:36.978Z,1004.34
2023-04-14T06:57:36.978Z,1004.31
2023-04-14T06:58:37.037Z,1004.30
2023-04-14T06:59:36.937Z,1004.31
2023-04-14T07:00:36.965Z,1004.30
2023-04-14T07:01:36.959Z,1004.28
2023-04-14T07:02:37.152Z,1004.30
2023-04-14T07:03:37.102Z,1004.28
2023-04-14T07:04:36.977Z,1004.29
2023-04-14T07:05:36.926Z,1004.29
2023-04-14T07:06:36.931Z,1004.30
2023-04-14T07:07:36.914Z,1004.30
2023-04-14T07:08:36.929Z,1004.30
2023-04-14T07:09:36.932Z,1004.31
2023-04-14T07:10:36.961Z,1004.34
2023-04-14T07:11:37.088Z,1004.34
2023-04-14T07:12:36.920Z,1004.32
2023-04-14T07:13:36.934Z,1004.34
2023-04-14T07:14:36.919Z,1004.32
2023-04-14T07:15:36.935Z,1004.31
2023-04-14T07:16:36.895Z,1004.34
2023-04-14T07:17:36.928Z,1004.34
2023-04-14T07:18:36.912Z,1004.35
2023-04-14T07:19:36.910Z,1004.35
2023-04-14T07:20:36.922Z,1004.36
2023-04-14T07:21:36.894Z,1004.36
2023-04-14T07:22:36.914Z,1004.37
2023-04-14T07:23:36.931Z,1004.37
2023-04-14T07:24:36.907Z,1004.37
2023-04-14T07:25:36.900Z,1004.39
2023-04-14T07:26:36.901Z,1004.41
2023-04-14T07:27:36.905Z,1004.39
2023-04-14T07:28:37.053Z,1004.37
2023-04-14T07:29:37.625Z,1004.38
2023-04-14T07:30:36.933Z,1004.36
2023-04-14T07:31:37.055Z,1004.36
2023-04-14T07:32:36.939Z,1004.36
2023-04-14T07:33:36.912Z,1004.36
2023-04-14T07:34:36.895Z,1004.41
2023-04-14T07:35:36.880Z,1004.39
2023-04-14T07:36:36.890Z,1004.39
2023-04-14T07:37:36.886Z,1004.38
2023-04-14T07:38:36.944Z,1004.40
2023-04-14T07:39:36.920Z,1004.39
2023-04-14T07:40:38.370Z,1004.36
2023-04-14T07:41:36.924Z,1004.40
2023-04-14T07:42:36.876Z,1004.39
2023-04-14T07:43:36.919Z,1004.36
2023-04-14T07:44:36.935Z,1004.34
2023-04-14T07:45:36.887Z,1004.40
2023-04-14T07:46:36.972Z,1004.42
2023-04-14T07:47:36.948Z,1004.38
2023-04-14T07:48:36.860Z,1004.33
2023-04-14T07:49:37.040Z,1004.35
2023-04-14T07:50:36.902Z,1004.37
2023-04-14T07:51:37.114Z,1004.40
2023-04-14T07:52:36.946Z,1004.37
2023-04-14T07:53:37.080Z,1004.40
2023-04-14T07:54:36.848Z,1004.36
2023-04-14T07:55:37.016Z,1004.37
2023-04-14T07:56:37.131Z,1004.40
2023-04-14T07:57:37.044Z,1004.36
2023-04-14T07:58:36.959Z,1004.41
2023-04-14T07:59:36.858Z,1004.41
2023-04-14T08:00:36.997Z,1004.38
2023-04-14T08:01:36.933Z,1004.42
2023-04-14T08:02:37.027Z,1004.44
2023-04-14T08:03:37.018Z,1004.43
2023-04-14T08:04:36.875Z,1004.44
2023-04-14T08:05:36.995Z,1004.45
2023-04-14T08:06:36.855Z,1004.45
2023-04-14T08:07:36.859Z,1004.45
2023-04-14T08:08:36.907Z,1004.45
2023-04-14T08:09:36.828Z,1004.46
2023-04-14T08:10:36.910Z,1004.44
2023-04-14T08:11:36.921Z,1004.44
2023-04-14T08:12:36.850Z,1004.44
2023-04-14T08:13:36.855Z,1004.47
2023-04-14T08:14:36.849Z,1004.51
2023-04-14T08:15:36.851Z,1004.49
2023-04-14T08:16:37.308Z,1004.47
2023-04-14T08:17:36.879Z,1004.46
2023-04-14T08:18:36.863Z,1004.48
2023-04-14T08:19:36.848Z,1004.49
2023-04-14T08:20:36.878Z,1004.46
2023-04-14T08:21:36.856Z,1004.46
2023-04-14T08:22:36.814Z,1004.46
2023-04-14T08:23:36.868Z,1004.48
2023-04-14T08:24:37.906Z,1004.46
2023-04-14T08:25:36.804Z,1004.50
2023-04-14T08:26:36.830Z,1004.47
2023-04-14T08:27:36.912Z,1004.47
2023-04-14T08:28:36.928Z,1004.43
2023-04-14T08:29:36.824Z,1004.43
2023-04-14T08:30:36.812Z,1004.42
2023-04-14T08:31:36.907Z,1004.41
2023-04-14T08:32:36.908Z,1004.42
2023-04-14T08:33:36.975Z,1004.42
2023-04-14T08:34:36.870Z,1004.40
2023-04-14T08:35:41.606Z,1004.38
2023-04-14T08:36:36.862Z,1004.37
2023-04-14T08:37:36.797Z,1004.33
2023-04-14T08:38:37.001Z,1004.37
2023-04-14T08:39:36.795Z,1004.37
2023-04-14T08:40:37.925Z,1004.35
2023-04-14T08:41:36.868Z,1004.33
2023-04-14T08:42:36.853Z,1004.35
2023-04-14T08:43:36.949Z,1004.38
2023-04-14T08:44:36.849Z,1004.35
2023-04-14T08:45:36.895Z,1004.38
2023-04-14T08:46:36.848Z,1004.37
2023-04-14T08:47:37.005Z,1004.38
2023-04-14T08:48:36.872Z,1004.38
2023-04-14T08:49:36.795Z,1004.45
2023-04-14T08:50:36.806Z,1004.44
2023-04-14T08:51:36.826Z,1004.41
2023-04-14T08:52:36.834Z,1004.40
2023-04-14T08:53:36.801Z,1004.37
2023-04-14T08:54:36.791Z,1004.39
2023-04-14T08:55:36.808Z,1004.40
2023-04-14T08:56:36.818Z,1004.41
2023-04-14T08:57:36.782Z,1004.40
2023-04-14T08:58:36.823Z,1004.38
2023-04-14T08:59:36.869Z,1004.35
2023-04-14T09:00:36.785Z,1004.41
2023-04-14T09:01:36.854Z,1004.38
2023-04-14T09:02:36.885Z,1004.39
2023-04-14T09:03:37.002Z,1004.35
2023-04-14T09:04:36.937Z,1004.35
2023-04-14T09:05:36.790Z,1004.39
2023-04-14T09:06:36.827Z,1004.38
2023-04-14T09:07:36.850Z,1004.35
2023-04-14T09:08:36.808Z,1004.37
2023-04-14T09:09:36.810Z,1004.40
2023-04-14T09:10:36.857Z,1004.38
2023-04-14T09:11:36.787Z,1004.36
2023-04-14T09:12:38.169Z,1004.40
2023-04-14T09:15:09.338Z,1004.39
2023-04-14T09:16:09.304Z,1004.34
2023-04-14T09:17:09.365Z,1004.33
2023-04-14T09:18:09.833Z,1004.34
2023-04-14T09:19:10.148Z,1004.34
2023-04-14T09:20:35.654Z,1004.31
2023-04-14T09:21:37.163Z,1004.32
2023-04-14T09:22:09.361Z,1004.32
2023-04-14T09:23:09.667Z,1004.32
2023-04-14T09:24:11.014Z,1004.32
2023-04-14T09:25:09.393Z,1004.28
2023-04-14T09:26:09.390Z,1004.27
2023-04-14T09:27:09.409Z,1004.25
2023-04-14T09:28:09.318Z,1004.24
2023-04-14T09:29:09.384Z,1004.16
2023-04-14T09:30:09.346Z,1004.21
2023-04-14T09:31:09.334Z,1004.21
2023-04-14T09:32:09.440Z,1004.21
2023-04-14T09:33:09.604Z,1004.20
2023-04-14T09:34:09.789Z,1004.18
2023-04-14T09:35:09.340Z,1004.19
2023-04-14T09:36:09.383Z,1004.25
2023-04-14T09:37:09.470Z,1004.20
2023-04-14T09:38:09.540Z,1004.19
2023-04-14T09:39:09.376Z,1004.17
2023-04-14T09:40:09.351Z,1004.18
2023-04-14T09:41:09.306Z,1004.18
2023-04-14T09:42:09.399Z,1004.16
2023-04-14T09:43:09.330Z,1004.21
2023-04-14T09:44:09.345Z,1004.19
2023-04-14T09:45:09.321Z,1004.18
2023-04-14T09:46:09.407Z,1004.18
2023-04-14T09:47:09.337Z,1004.19
2023-04-14T09:48:09.429Z,1004.19
2023-04-14T09:49:09.361Z,1004.19
2023-04-14T09:50:09.308Z,1004.25
2023-04-14T09:51:09.324Z,1004.25
2023-04-14T09:52:09.353Z,1004.24
2023-04-14T09:53:09.329Z,1004.26
2023-04-14T09:54:09.331Z,1004.20
2023-04-14T09:55:09.312Z,1004.22
2023-04-14T09:56:09.309Z,1004.24
2023-04-14T09:57:09.301Z,1004.19
2023-04-14T09:58:09.318Z,1004.22
2023-04-14T09:59:09.324Z,1004.16
2023-04-14T10:00:09.335Z,1004.17
2023-04-14T10:01:09.336Z,1004.16
2023-04-14T10:02:09.431Z,1004.18
2023-04-14T10:13:29.540Z,1004.07
2023-04-14T10:14:29.511Z,1004.02
2023-04-14T10:15:29.500Z,1003.98
2023-04-14T10:16:29.878Z,1003.96
2023-04-14T10:17:30.337Z,1003.97
2023-04-14T10:18:29.524Z,1004.01
2023-04-14T10:19:29.495Z,1003.99
2023-04-14T10:20:29.492Z,1003.98
2023-04-14T10:21:29.515Z,1004.05
2023-04-14T10:22:29.501Z,1004.01
2023-04-14T10:23:29.535Z,1003.98
2023-04-14T10:24:30.285Z,1003.97
2023-04-14T10:25:29.501Z,1003.91
2023-04-14T10:26:29.522Z,1003.95
2023-04-14T10:27:30.312Z,1003.90
2023-04-14T10:28:29.491Z,1003.86
2023-04-14T10:29:29.549Z,1003.93
2023-04-14T10:30:29.502Z,1003.86
2023-04-14T10:31:29.593Z,1003.80
2023-04-14T10:33:29.513Z,1003.84
2023-04-14T10:34:29.535Z,1003.80
2023-04-14T10:35:29.567Z,1003.85
2023-04-14T10:36:29.495Z,1003.83
2023-04-14T10:37:29.504Z,1003.80
2023-04-14T10:38:30.248Z,1003.76
2023-04-14T10:39:29.545Z,1003.80
2023-04-14T10:40:29.550Z,1003.81
2023-04-14T10:41:29.524Z,1003.77
2023-04-14T10:42:29.543Z,1003.75
2023-04-14T10:43:29.530Z,1003.75
2023-04-14T10:44:29.672Z,1003.75
2023-04-14T10:45:29.575Z,1003.76
2023-04-14T10:46:29.574Z,1003.80
2023-04-14T10:47:29.640Z,1003.76
2023-04-14T10:48:29.589Z,1003.73
2023-04-14T10:49:29.591Z,1003.72
2023-04-14T10:50:29.548Z,1003.70
2023-04-14T10:51:29.575Z,1003.73
2023-04-14T10:52:29.530Z,1003.74
2023-04-14T10:53:29.571Z,1003.71
2023-04-14T10:54:29.554Z,1003.69
2023-04-14T10:55:29.577Z,1003.75
2023-04-14T10:56:29.554Z,1003.75
2023-04-14T10:57:29.697Z,1003.73
2023-04-14T10:58:29.612Z,1003.69
2023-04-14T10:59:29.544Z,1003.67
2023-04-14T11:00:29.550Z,1003.67
2023-04-14T11:01:29.677Z,1003.61
2023-04-14T11:02:29.885Z,1003.61
2023-04-14T11:03:29.700Z,1003.61
2023-04-14T11:04:29.800Z,1003.61
2023-04-14T11:05:29.660Z,1003.64
2023-04-14T11:06:29.685Z,1003.63
2023-04-14T11:07:29.656Z,1003.59
2023-04-14T11:08:29.587Z,1003.64
2023-04-14T11:09:29.706Z,1003.58
2023-04-14T11:10:29.608Z,1003.60
2023-04-14T11:11:29.601Z,1003.58
2023-04-14T11:12:29.678Z,1003.60
2023-04-14T11:13:29.725Z,1003.62
2023-04-14T11:14:29.618Z,1003.64
2023-04-14T11:15:29.630Z,1003.61
2023-04-14T11:16:29.713Z,1003.58
2023-04-14T11:17:29.687Z,1003.62
2023-04-14T11:18:29.680Z,1003.58
2023-04-14T11:19:29.652Z,1003.60
2023-04-14T11:20:29.671Z,1003.59
2023-04-14T11:21:29.707Z,1003.56
2023-04-14T11:22:30.281Z,1003.58
2023-04-14T11:23:29.664Z,1003.53
2023-04-14T11:24:29.633Z,1003.52
2023-04-14T11:25:29.660Z,1003.50
2023-04-14T11:26:29.689Z,1003.48
2023-04-14T11:27:29.642Z,1003.49
2023-04-14T11:28:29.649Z,1003.50
2023-04-14T11:29:29.629Z,1003.50
2023-04-14T11:30:29.680Z,1003.47
2023-04-14T11:31:29.710Z,1003.44
2023-04-14T11:32:29.655Z,1003.44
2023-04-14T11:33:29.760Z,1003.41
2023-04-14T11:34:30.286Z,1003.44
2023-04-14T11:35:29.667Z,1003.40
2023-04-14T11:36:29.677Z,1003.38
2023-04-14T11:37:29.735Z,1003.38
2023-04-14T11:38:29.698Z,1003.39
2023-04-14T11:39:29.703Z,1003.41
2023-04-14T11:40:29.724Z,1003.35
2023-04-14T11:41:29.687Z,1003.37
2023-04-14T11:42:29.679Z,1003.35
2023-04-14T11:43:29.730Z,1003.36
2023-04-14T11:44:29.716Z,1003.37
2023-04-14T11:45:29.692Z,1003.38
2023-04-14T11:46:29.778Z,1003.35
2023-04-14T11:47:29.739Z,1003.38
2023-04-14T11:48:29.704Z,1003.36
2023-04-14T11:49:29.777Z,1003.34
2023-04-14T11:50:29.712Z,1003.36
2023-04-14T11:51:29.716Z,1003.33
2023-04-14T11:52:29.734Z,1003.36
2023-04-14T11:53:29.805Z,1003.35
2023-04-14T11:54:29.897Z,1003.35
2023-04-14T11:55:29.753Z,1003.37
2023-04-14T11:56:29.751Z,1003.36
2023-04-14T11:57:29.752Z,1003.36
2023-04-14T11:58:29.771Z,1003.35
2023-04-14T11:59:29.809Z,1003.31
2023-04-14T12:00:29.772Z,1003.34
2023-04-14T12:01:29.788Z,1003.34
2023-04-14T12:02:29.867Z,1003.30
2023-04-14T12:03:30.491Z,1003.29
2023-04-14T12:04:30.045Z,1003.33
2023-04-14T12:05:29.962Z,1003.29
2023-04-14T12:06:29.851Z,1003.26
2023-04-14T12:07:29.788Z,1003.26
2023-04-14T12:08:29.803Z,1003.24
2023-04-14T12:09:29.804Z,1003.24
2023-04-14T12:10:29.806Z,1003.24
2023-04-14T12:11:29.796Z,1003.27
2023-04-14T12:12:29.804Z,1003.24
2023-04-14T12:13:29.832Z,1003.25
2023-04-14T12:14:29.824Z,1003.23
2023-04-14T12:15:29.826Z,1003.20
2023-04-14T12:16:29.897Z,1003.15
2023-04-14T12:17:29.888Z,1003.18
2023-04-14T12:18:29.836Z,1003.17
2023-04-14T12:19:29.850Z,1003.19
2023-04-14T12:20:29.880Z,1003.12
2023-04-14T12:21:29.887Z,1003.15
2023-04-14T12:22:29.836Z,1003.18
2023-04-14T12:23:29.882Z,1003.12
2023-04-14T12:24:29.916Z,1003.08
2023-04-14T12:25:29.840Z,1003.15
2023-04-14T12:26:29.860Z,1003.19
2023-04-14T12:27:29.876Z,1003.20
2023-04-14T12:28:29.893Z,1003.17
2023-04-14T12:29:29.874Z,1003.18
2023-04-14T12:30:29.887Z,1003.18
2023-04-14T12:31:30.074Z,1003.14
2023-04-14T12:32:29.942Z,1003.16
2023-04-14T12:33:29.903Z,1003.14
2023-04-14T12:34:29.882Z,1003.14
2023-04-14T12:35:29.929Z,1003.17
2023-04-14T12:36:45.319Z,1003.19
2023-04-14T12:37:29.902Z,1003.16
2023-04-14T12:38:29.960Z,1003.16
2023-04-14T12:39:29.917Z,1003.15
2023-04-14T12:40:29.948Z,1003.16
2023-04-14T12:41:29.908Z,1003.12
2023-04-14T12:42:29.931Z,1003.09
2023-04-14T12:43:29.934Z,1003.07
2023-04-14T12:44:29.975Z,1003.09
2023-04-14T12:45:30.282Z,1003.05
2023-04-14T12:46:29.961Z,1003.00
2023-04-14T12:47:29.952Z,1002.99
2023-04-14T12:48:29.958Z,1002.99
2023-04-14T12:49:29.945Z,1002.94
2023-04-14T12:50:29.934Z,1002.94
2023-04-14T12:51:29.951Z,1002.88
2023-04-14T12:52:29.945Z,1002.87
2023-04-14T12:53:29.970Z,1002.88
2023-04-14T12:54:29.962Z,1002.85
2023-04-14T12:55:30.027Z,1002.87
2023-04-14T12:56:29.998Z,1002.90
2023-04-14T12:57:29.981Z,1002.87
2023-04-14T12:58:29.995Z,1002.87
2023-04-14T12:59:30.028Z,1002.86
2023-04-14T13:00:30.048Z,1002.85
2023-04-14T13:04:02.649Z,1002.81
2023-04-14T13:05:02.576Z,1002.77
2023-04-14T13:06:02.567Z,1002.76
2023-04-14T13:07:02.598Z,1002.78
2023-04-14T13:08:02.589Z,1002.73
2023-04-14T13:09:02.832Z,1002.71
2023-04-14T13:10:02.612Z,1002.71
2023-04-14T13:11:02.596Z,1002.70
2023-04-14T13:12:02.579Z,1002.67
2023-04-14T13:13:02.590Z,1002.70
2023-04-14T13:14:02.622Z,1002.67
2023-04-14T13:15:02.602Z,1002.71
2023-04-14T13:16:13.138Z,1002.70
2023-04-14T13:17:02.644Z,1002.66
2023-04-14T13:18:02.661Z,1002.67
2023-04-14T13:19:02.895Z,1002.65
2023-04-14T13:20:02.663Z,1002.71
2023-04-14T13:21:02.637Z,1002.67
2023-04-14T13:22:02.682Z,1002.64
2023-04-14T13:23:02.663Z,1002.67
2023-04-14T13:24:02.688Z,1002.67
2023-04-14T13:25:02.675Z,1002.62
2023-04-14T13:26:02.684Z,1002.63
2023-04-14T13:27:02.707Z,1002.67
2023-04-14T13:28:02.701Z,1002.64
2023-04-14T13:29:03.134Z,1002.62
2023-04-14T13:30:02.721Z,1002.55
2023-04-14T13:31:02.721Z,1002.59
2023-04-14T13:32:02.772Z,1002.55
2023-04-14T13:33:02.835Z,1002.54
2023-04-14T13:34:02.750Z,1002.55
2023-04-14T13:35:02.782Z,1002.52
2023-04-14T13:36:03.036Z,1002.54
2023-04-14T13:37:02.815Z,1002.52
2023-04-14T13:38:02.775Z,1002.51
2023-04-14T13:39:03.018Z,1002.52
2023-04-14T13:40:02.789Z,1002.49
2023-04-14T13:41:02.820Z,1002.51
2023-04-14T13:42:02.828Z,1002.54
2023-04-14T13:43:02.830Z,1002.50
2023-04-14T13:44:02.816Z,1002.45
2023-04-14T13:45:02.818Z,1002.42
2023-04-14T13:46:02.894Z,1002.45
2023-04-14T13:47:02.884Z,1002.43
2023-04-14T13:48:02.922Z,1002.45
2023-04-14T13:49:03.225Z,1002.41
2023-04-14T13:50:02.867Z,1002.39
2023-04-14T13:51:02.874Z,1002.36
2023-04-14T13:52:02.938Z,1002.38
2023-04-14T13:53:02.884Z,1002.34
2023-04-14T13:54:02.915Z,1002.30
2023-04-14T13:55:02.889Z,1002.31
2023-04-14T13:56:02.954Z,1002.33
2023-04-14T13:57:02.940Z,1002.31
2023-04-14T13:58:02.942Z,1002.27
2023-04-14T13:59:03.037Z,1002.27
2023-04-14T14:00:02.958Z,1002.27
2023-04-14T14:01:02.959Z,1002.29
2023-04-14T14:02:03.098Z,1002.27
2023-04-14T14:03:03.120Z,1002.23
2023-04-14T14:04:03.275Z,1002.25
2023-04-14T14:05:02.995Z,1002.25
2023-04-14T14:06:03.005Z,1002.25
2023-04-14T14:07:03.007Z,1002.26
2023-04-14T14:08:02.989Z,1002.19
2023-04-14T14:09:05.659Z,1002.19
2023-04-14T14:10:02.996Z,1002.21
2023-04-14T14:11:03.012Z,1002.20
2023-04-14T14:12:03.028Z,1002.19
2023-04-14T14:13:03.045Z,1002.20
2023-04-14T14:14:03.277Z,1002.19
2023-04-14T14:15:03.118Z,1002.16
2023-04-14T14:16:03.054Z,1002.19
2023-04-14T14:17:03.059Z,1002.16
2023-04-14T14:18:03.155Z,1002.19
2023-04-14T14:19:03.306Z,1002.20
2023-04-14T14:20:03.104Z,1002.16
2023-04-14T14:21:03.097Z,1002.17
2023-04-14T14:22:03.073Z,1002.17
2023-04-14T14:23:03.120Z,1002.19
2023-04-14T14:24:03.436Z,1002.13
2023-04-14T14:25:17.411Z,1002.17
2023-04-14T14:26:03.121Z,1002.15
2023-04-14T14:27:03.124Z,1002.16
2023-04-14T14:28:03.153Z,1002.19
2023-04-14T14:29:03.189Z,1002.20
2023-04-14T14:30:03.145Z,1002.16
2023-04-14T14:31:04.960Z,1002.15
2023-04-14T14:32:03.159Z,1002.16
2023-04-14T14:33:03.248Z,1002.15
2023-04-14T14:34:03.503Z,1002.15
2023-04-14T14:35:03.227Z,1002.21
2023-04-14T14:36:03.191Z,1002.20
2023-04-14T14:37:03.203Z,1002.21
2023-04-14T14:38:03.252Z,1002.24
2023-04-14T14:39:03.253Z,1002.24
2023-04-14T14:40:03.276Z,1002.27
2023-04-14T14:41:03.277Z,1002.23
2023-04-14T14:42:03.242Z,1002.25
2023-04-14T14:43:03.272Z,1002.23
2023-04-14T14:44:03.599Z,1002.25
2023-04-14T14:45:03.306Z,1002.30
2023-04-14T14:46:03.404Z,1002.30
2023-04-14T14:47:03.499Z,1002.27
2023-04-14T14:48:03.309Z,1002.24
2023-04-14T14:49:03.343Z,1002.24
2023-04-14T14:50:05.934Z,1002.22
2023-04-14T14:51:03.306Z,1002.25
2023-04-14T14:52:03.300Z,1002.22
2023-04-14T14:53:03.279Z,1002.25
2023-04-14T14:54:09.823Z,1002.23
2023-04-14T14:55:03.261Z,1002.25
2023-04-14T14:56:03.306Z,1002.21
2023-04-14T14:57:03.282Z,1002.24
2023-04-14T14:58:03.310Z,1002.22
2023-04-14T14:59:03.291Z,1002.24
2023-04-14T15:00:03.330Z,1002.24
2023-04-14T15:01:03.285Z,1002.26
2023-04-14T15:02:03.347Z,1002.24
2023-04-14T15:03:03.333Z,1002.22
2023-04-14T15:04:03.512Z,1002.20
2023-04-14T15:05:03.291Z,1002.21
2023-04-14T15:06:03.296Z,1002.21
2023-04-14T15:07:03.353Z,1002.18
2023-04-14T15:08:24.304Z,1002.17
2023-04-14T15:09:03.309Z,1002.15
2023-04-14T15:10:03.332Z,1002.15
2023-04-14T15:11:03.339Z,1002.14
2023-04-14T15:12:03.319Z,1002.12
2023-04-14T15:13:03.362Z,1002.15
2023-04-14T15:14:03.793Z,1002.15
2023-04-14T15:15:03.356Z,1002.16
2023-04-14T15:16:03.382Z,1002.18
2023-04-14T15:17:03.396Z,1002.16
2023-04-14T15:18:03.417Z,1002.17
2023-04-14T15:19:03.389Z,1002.12
2023-04-14T15:20:03.392Z,1002.14
2023-04-14T15:21:03.387Z,1002.11
2023-04-14T15:22:03.368Z,1002.08
2023-04-14T15:23:03.421Z,1002.14
2023-04-14T15:24:03.813Z,1002.12
2023-04-14T15:25:03.379Z,1002.10
2023-04-14T15:26:03.408Z,1002.09
2023-04-14T15:27:03.402Z,1002.08
2023-04-14T15:28:03.402Z,1002.08
2023-04-14T15:29:03.413Z,1002.09
2023-04-14T15:30:03.425Z,1002.10
2023-04-14T15:31:03.428Z,1002.12
2023-04-14T15:32:03.457Z,1002.14
2023-04-14T15:33:03.553Z,1002.15
2023-04-14T15:34:03.712Z,1002.17
2023-04-14T15:35:03.418Z,1002.17
2023-04-14T15:36:03.443Z,1002.17
2023-04-14T15:37:03.439Z,1002.17
2023-04-14T15:38:03.426Z,1002.15
2023-04-14T15:39:03.461Z,1002.17
2023-04-14T15:40:03.443Z,1002.14
2023-04-14T15:41:04.477Z,1002.14
2023-04-14T15:42:03.456Z,1002.12
2023-04-14T15:43:03.441Z,1002.14
2023-04-14T15:44:03.719Z,1002.16
2023-04-14T15:45:03.455Z,1002.18
2023-04-14T15:46:03.473Z,1002.18
2023-04-14T15:47:03.448Z,1002.16
2023-04-14T15:48:03.521Z,1002.12
2023-04-14T15:49:03.465Z,1002.12
2023-04-14T15:50:09.861Z,1002.12
2023-04-14T15:51:03.432Z,1002.08
2023-04-14T15:52:03.450Z,1002.11
2023-04-14T15:53:03.507Z,1002.10
2023-04-14T15:54:03.891Z,1002.11
2023-04-14T15:55:03.453Z,1002.09
2023-04-14T15:56:03.444Z,1002.08
2023-04-14T15:57:03.444Z,1002.07
2023-04-14T15:58:03.434Z,1002.11
2023-04-14T15:59:03.467Z,1002.12
2023-04-14T16:00:03.506Z,1002.07
2023-04-14T16:01:03.498Z,1002.11
2023-04-14T16:12:38.102Z,1002.03
2023-04-14T16:13:38.057Z,1001.99
2023-04-14T16:14:38.024Z,1002.01
2023-04-14T16:15:38.097Z,1001.99
2023-04-14T16:16:38.044Z,1002.02
2023-04-14T16:17:38.176Z,1002.02
2023-04-14T16:18:38.011Z,1002.03
2023-04-14T16:19:38.009Z,1002.03
2023-04-14T16:20:38.021Z,1002.05
2023-04-14T16:21:38.013Z,1002.07
2023-04-14T16:22:38.007Z,1002.05
2023-04-14T16:23:38.080Z,1002.10
2023-04-14T16:24:38.015Z,1002.06
2023-04-14T16:25:38.005Z,1002.10
2023-04-14T16:26:38.022Z,1002.08
2023-04-14T16:27:38.004Z,1002.11
2023-04-14T16:28:38.027Z,1002.09
2023-04-14T16:29:38.030Z,1002.09
2023-04-14T16:30:38.392Z,1002.10
2023-04-14T16:31:38.033Z,1002.13
2023-04-14T16:32:38.089Z,1002.07